Time;durP1;ratioP1;P1;durP2;ratioP2;P2;SDS_P1;SDS_P2;PMS_P1;PMS_P2;Temp;Humidity;BMP_temperature;BMP_pressure;BME280_temperature;BME280_humidity;BME280_pressure;Samples;Min_cycle;Max_cycle;Signal;HPM_P1;HPM_P2
2022/05/06 00:00:13;;;;;;;;;15.33;14.33;;;;;16.54;96.90;102273.34;5117826;27;45499;-79
2022/05/06 00:02:39;;;;;;;;;19.00;17.75;;;;;16.51;97.34;102268.84;5117469;27;46376;-79
2022/05/06 00:05:05;;;;;;;;;20.75;18.00;;;;;16.48;96.61;102272.41;5116422;27;45532;-77
2022/05/06 00:07:31;;;;;;;;;20.50;18.75;;;;;16.47;97.50;102275.97;5117450;27;45252;-78
2022/05/06 00:09:56;;;;;;;;;18.50;16.00;;;;;16.49;97.62;102281.28;5124905;27;45285;-78
2022/05/06 00:12:22;;;;;;;;;18.50;16.75;;;;;16.48;98.57;102276.84;5141874;27;48660;-78
2022/05/06 00:14:47;;;;;;;;;19.75;18.75;;;;;16.46;98.39;102276.84;5141952;27;45369;-78
2022/05/06 00:17:13;;;;;;;;;19.00;16.75;;;;;16.46;97.74;102271.50;5123437;27;45409;-78
2022/05/06 00:19:40;;;;;;;;;19.00;14.75;;;;;16.45;99.27;102277.69;5141931;27;45381;-78
2022/05/06 00:22:05;;;;;;;;;20.00;18.00;;;;;16.44;99.21;102273.25;5123041;27;45661;-78
2022/05/06 00:24:30;;;;;;;;;21.00;16.75;;;;;16.43;98.68;102279.47;5141516;27;45395;-78
2022/05/06 00:26:57;;;;;;;;;14.50;14.50;;;;;16.43;100.00;102273.25;5141677;27;45952;-78
2022/05/06 00:29:22;;;;;;;;;18.50;16.50;;;;;16.41;99.19;102265.22;5141906;27;45389;-78
2022/05/06 00:31:48;;;;;;;;;16.25;15.00;;;;;16.39;100.00;102269.63;5134197;27;47148;-77
2022/05/06 00:34:13;;;;;;;;;17.75;17.50;;;;;16.36;100.00;102277.63;5123807;27;45235;-79
2022/05/06 00:36:38;;;;;;;;;20.00;16.25;;;;;16.34;100.00;102273.13;5141709;27;45222;-78
2022/05/06 00:39:04;;;;;;;;;17.50;15.25;;;;;16.34;100.00;102275.81;5141666;27;45404;-79
2022/05/06 00:41:34;;;;;;;;;16.25;16.00;;;;;16.32;100.00;102280.25;5135255;27;46270;-78
2022/05/06 00:44:00;;;;;;;;;17.00;15.75;;;;;16.31;100.00;102278.47;5141463;27;45305;-78
2022/05/06 00:46:26;;;;;;;;;18.75;17.00;;;;;16.29;100.00;102269.53;5141479;27;45273;-79
2022/05/06 00:48:51;;;;;;;;;16.25;16.00;;;;;16.28;100.00;102276.63;5140148;27;45400;-78
2022/05/06 00:51:18;;;;;;;;;16.50;16.50;;;;;16.29;100.00;102278.41;5141195;27;47231;-78
2022/05/06 00:53:44;;;;;;;;;16.25;16.25;;;;;16.28;100.00;102270.41;5136207;27;45340;-78
2022/05/06 00:56:15;;;;;;;;;20.50;18.50;;;;;16.29;100.00;102280.19;5120526;27;45322;-78
2022/05/06 00:58:40;;;;;;;;;19.00;19.00;;;;;16.29;100.00;102277.53;5126124;27;45397;-79
2022/05/06 01:01:09;;;;;;;;;20.50;16.00;;;;;16.29;100.00;102275.75;5141083;27;46106;-78
2022/05/06 01:03:34;;;;;;;;;21.00;17.75;;;;;16.24;100.00;102267.72;5140959;27;45207;-77
2022/05/06 01:06:03;;;;;;;;;25.00;18.25;;;;;16.18;100.00;102266.75;5140755;27;45336;-79
2022/05/06 01:08:29;;;;;;;;;21.00;18.50;;;;;16.13;100.00;102261.38;5137634;27;45498;-78
2022/05/06 01:10:54;;;;;;;;;21.25;18.00;;;;;16.07;100.00;102255.09;5113084;27;46582;-78
2022/05/06 01:13:21;;;;;;;;;22.25;20.25;;;;;16.05;100.00;102264.84;5120057;27;45358;-79
2022/05/06 01:15:46;;;;;;;;;26.25;21.00;;;;;16.02;100.00;102268.34;5120237;27;45262;-80
2022/05/06 01:18:12;;;;;;;;;23.75;20.75;;;;;15.99;100.00;102273.66;5119956;27;45500;-79
2022/05/06 01:20:45;;;;;;;;;17.25;16.50;;;;;15.97;100.00;102267.41;5119892;27;46054;-78
2022/05/06 01:23:11;;;;;;;;;17.25;16.75;;;;;15.97;100.00;102275.38;5119843;27;45421;-77
2022/05/06 01:25:36;;;;;;;;;20.50;20.00;;;;;15.93;100.00;102260.28;5101700;27;45411;-79
2022/05/06 01:28:04;;;;;;;;;19.75;18.00;;;;;15.93;100.00;102276.25;5120431;27;45287;-77
2022/05/06 01:30:37;;;;;;;;;24.00;21.50;;;;;15.90;100.00;102271.75;5119622;27;46550;-79
2022/05/06 01:33:04;;;;;;;;;21.25;19.00;;;;;15.88;100.00;102260.22;5101225;27;45261;-79
2022/05/06 01:35:31;;;;;;;;;21.25;21.25;;;;;15.87;100.00;102270.81;5134097;27;45214;-77
2022/05/06 01:38:03;;;;;;;;;21.25;20.50;;;;;15.87;100.00;102281.47;5140485;27;45277;-77
2022/05/06 01:40:29;;;;;;;;;22.50;20.00;;;;;15.83;100.00;102263.69;5135520;27;47613;-78
2022/05/06 01:42:57;;;;;;;;;22.75;20.25;;;;;15.84;100.00;102265.47;5140334;27;52337;-78
2022/05/06 01:45:23;;;;;;;;;20.50;17.00;;;;;15.80;100.00;102260.97;5140373;27;45209;-77
2022/05/06 01:47:51;;;;;;;;;23.00;20.00;;;;;15.78;100.00;102266.31;5139110;27;45347;-78
2022/05/06 01:50:17;;;;;;;;;23.00;20.25;;;;;15.73;100.00;102264.44;5121415;27;47164;-78
2022/05/06 01:52:43;;;;;;;;;25.75;20.75;;;;;15.67;100.00;102262.63;5121966;27;45433;-78
2022/05/06 01:55:08;;;;;;;;;19.25;16.75;;;;;15.63;100.00;102266.09;5122004;27;45524;-78
2022/05/06 01:57:34;;;;;;;;;23.00;19.50;;;;;15.58;100.00;102271.31;5119828;27;45231;-77
2022/05/06 01:59:59;;;;;;;;;18.50;18.50;;;;;15.57;100.00;102282.84;5135555;27;46657;-77
2022/05/06 02:02:24;;;;;;;;;25.00;22.00;;;;;15.52;100.00;102273.91;5140065;27;45193;-79
2022/05/06 02:07:34;;;;;;;;;25.75;22.75;;;;;15.44;100.00;102279.09;5138825;27;45231;-78
2022/05/06 02:09:59;;;;;;;;;21.75;20.50;;;;;15.44;100.00;102276.44;5116762;27;46144;-79
2022/05/06 02:12:25;;;;;;;;;23.75;22.75;;;;;15.41;100.00;102272.88;5119199;27;45376;-78
2022/05/06 02:14:51;;;;;;;;;24.50;22.00;;;;;15.39;100.00;102267.53;5119182;27;46506;-79
2022/05/06 02:17:16;;;;;;;;;26.50;22.75;;;;;15.38;100.00;102273.69;5119401;27;45419;-79
2022/05/06 02:19:42;;;;;;;;;27.75;23.00;;;;;15.36;100.00;102270.13;5118804;27;47321;-78
2022/05/06 02:22:08;;;;;;;;;25.00;22.75;;;;;15.35;100.00;102271.00;5119376;27;45234;-78
2022/05/06 02:24:33;;;;;;;;;26.00;19.00;;;;;15.30;100.00;102277.16;5119201;27;45144;-79
2022/05/06 02:26:59;;;;;;;;;22.00;22.00;;;;;15.28;100.00;102279.75;5119157;27;45305;-77
2022/05/06 02:29:24;;;;;;;;;26.00;25.50;;;;;15.28;100.00;102279.75;5118611;27;46612;-79
2022/05/06 02:34:33;;;;;;;;;32.50;29.25;;;;;15.22;100.00;102270.81;5125585;27;45442;-78
2022/05/06 02:36:59;;;;;;;;;31.00;25.00;;;;;15.22;100.00;102271.69;5139763;27;45410;-79
2022/05/06 02:39:25;;;;;;;;;27.75;24.75;;;;;15.21;100.00;102277.88;5139316;27;45997;-77
2022/05/06 02:41:51;;;;;;;;;24.00;21.00;;;;;15.19;100.00;102275.22;5134792;27;45462;-78
2022/05/06 02:44:17;;;;;;;;;25.25;22.00;;;;;15.15;100.00;102276.03;5139402;27;45304;-78
2022/05/06 02:46:43;;;;;;;;;23.75;23.50;;;;;15.16;100.00;102271.59;5139263;27;46261;-78
2022/05/06 02:49:08;;;;;;;;;22.50;22.25;;;;;15.12;100.00;102275.97;5138893;27;54861;-78
2022/05/06 02:51:33;;;;;;;;;24.00;20.75;;;;;15.09;100.00;102267.97;5139118;27;45175;-79
2022/05/06 02:53:59;;;;;;;;;29.50;25.75;;;;;15.09;100.00;102280.38;5132233;27;45269;-79
2022/05/06 02:56:25;;;;;;;;;26.00;23.50;;;;;15.09;100.00;102283.94;5118561;27;45612;-78
2022/05/06 02:58:50;;;;;;;;;26.75;23.25;;;;;15.08;100.00;102276.81;5125902;27;45761;-78
2022/05/06 03:01:15;;;;;;;;;22.75;21.50;;;;;15.09;100.00;102280.38;5120510;27;46314;-77
2022/05/06 03:03:41;;;;;;;;;30.25;27.75;;;;;15.07;100.00;102279.44;5139299;27;45200;-77
2022/05/06 03:06:07;;;;;;;;;23.25;23.25;;;;;15.06;100.00;102280.31;5138877;27;45515;-79
2022/05/06 03:08:32;;;;;;;;;27.75;21.75;;;;;15.02;100.00;102273.16;5135369;27;46442;-79
2022/05/06 03:10:59;;;;;;;;;29.25;27.25;;;;;15.01;100.00;102284.66;5112061;27;45236;-78
2022/05/06 03:13:25;;;;;;;;;26.50;24.25;;;;;14.98;100.00;102276.66;5118458;27;45501;-78
2022/05/06 03:15:50;;;;;;;;;27.00;23.75;;;;;14.96;100.00;102281.03;5118477;27;45267;-78
2022/05/06 03:18:15;;;;;;;;;24.50;20.25;;;;;14.93;100.00;102282.78;5118238;27;46723;-77
2022/05/06 03:20:43;;;;;;;;;26.00;24.50;;;;;14.91;100.00;102273.91;5118061;27;45287;-78
2022/05/06 03:23:08;;;;;;;;;29.00;25.25;;;;;14.88;100.00;102278.25;5118244;27;45491;-79
2022/05/06 03:25:34;;;;;;;;;24.50;24.00;;;;;14.86;100.00;102275.59;5116844;27;45612;-78
2022/05/06 03:27:59;;;;;;;;;25.50;22.50;;;;;14.83;100.00;102278.19;5118050;27;45571;-78
2022/05/06 03:30:26;;;;;;;;;25.75;23.75;;;;;14.80;100.00;102279.88;5117695;27;45318;-78
2022/05/06 03:32:51;;;;;;;;;33.00;23.25;;;;;14.78;100.00;102274.56;5118108;27;45450;-77
2022/05/06 03:35:20;;;;;;;;;32.25;27.75;;;;;14.76;100.00;102278.97;5130766;27;45195;-77
2022/05/06 03:37:45;;;;;;;;;26.50;26.50;;;;;14.76;100.00;102278.97;5138588;27;46586;-78
2022/05/06 03:40:11;;;;;;;;;27.75;25.75;;;;;14.73;100.00;102280.66;5134549;27;46055;-78
2022/05/06 03:42:37;;;;;;;;;25.50;20.00;;;;;14.71;100.00;102285.97;5119899;27;45300;-78
2022/05/06 03:45:03;;;;;;;;;29.50;25.25;;;;;14.68;100.00;102285.91;5123927;27;45481;-77
2022/05/06 03:47:29;;;;;;;;;27.25;24.25;;;;;14.66;100.00;102287.66;5123246;27;47743;-77
2022/05/06 03:52:38;;;;;;;;;32.00;26.25;;;;;14.63;100.00;102293.78;5142348;27;45284;-79
2022/05/06 03:55:04;;;;;;;;;25.50;24.00;;;;;14.61;100.00;102290.22;5107268;27;45494;-78
2022/05/06 03:57:29;;;;;;;;;23.25;19.75;;;;;14.57;100.00;102296.34;5121182;27;47224;-79
2022/05/06 03:59:55;;;;;;;;;25.25;23.00;;;;;14.55;100.00;102306.06;5137147;27;45465;-78
2022/05/06 04:02:20;;;;;;;;;29.50;26.00;;;;;14.50;100.00;102301.53;5142094;27;45290;-77
2022/05/06 04:04:46;;;;;;;;;28.00;25.25;;;;;14.46;100.00;102302.28;5142234;27;45674;-78
2022/05/06 04:07:12;;;;;;;;;27.25;24.25;;;;;14.42;100.00;102296.91;5141577;27;46897;-77
2022/05/06 04:09:37;;;;;;;;;29.50;25.25;;;;;14.42;100.00;102296.03;5103896;27;45403;-77
2022/05/06 04:12:04;;;;;;;;;23.50;22.75;;;;;14.39;100.00;102296.88;5120966;27;48849;-79
2022/05/06 04:14:29;;;;;;;;;25.50;24.75;;;;;14.35;100.00;102292.34;5121170;27;45395;-78
2022/05/06 04:16:54;;;;;;;;;34.50;27.75;;;;;14.33;100.00;102296.75;5121025;27;46168;-77
2022/05/06 04:19:20;;;;;;;;;27.50;24.50;;;;;14.33;100.00;102304.72;5120986;27;45298;-78
2022/05/06 04:24:29;;;;;;;;;31.50;26.25;;;;;14.30;100.00;102306.44;5119924;27;45268;-78
2022/05/06 04:26:54;;;;;;;;;30.50;23.25;;;;;14.29;100.00;102308.19;5120733;27;46474;-79
2022/05/06 04:29:20;;;;;;;;;25.50;25.25;;;;;14.25;100.00;102301.03;5120843;27;45204;-77
2022/05/06 04:31:45;;;;;;;;;28.25;26.75;;;;;14.22;100.00;102316.91;5120927;27;45490;-77
2022/05/06 04:34:10;;;;;;;;;32.75;26.75;;;;;14.21;100.00;102316.88;5123760;27;45492;-77
2022/05/06 04:36:40;;;;;;;;;28.50;26.00;;;;;14.20;100.00;102315.06;5122902;27;48449;-78
2022/05/06 04:39:06;;;;;;;;;29.50;25.00;;;;;14.20;100.00;102317.72;5141491;27;45269;-79
2022/05/06 04:41:31;;;;;;;;;26.50;22.50;;;;;14.20;100.00;102320.38;5136799;27;45199;-77
2022/05/06 04:43:57;;;;;;;;;29.50;25.00;;;;;14.21;100.00;102320.41;5141920;27;45177;-78
2022/05/06 04:46:23;;;;;;;;;25.25;22.00;;;;;14.22;100.00;102318.66;5105622;27;47555;-77
2022/05/06 04:48:48;;;;;;;;;30.75;25.00;;;;;14.22;100.00;102316.00;5141055;27;45380;-78
2022/05/06 04:51:13;;;;;;;;;31.00;27.25;;;;;14.22;100.00;102323.97;5141197;27;46460;-78
2022/05/06 04:53:39;;;;;;;;;28.25;24.00;;;;;14.21;100.00;102322.19;5136575;27;45210;-77
2022/05/06 04:56:04;;;;;;;;;25.25;23.75;;;;;14.20;100.00;102321.28;5120355;27;51789;-77
2022/05/06 04:58:30;;;;;;;;;35.50;23.75;;;;;14.22;100.00;102330.19;5118946;27;45261;-78
2022/05/06 05:00:55;;;;;;;;;25.50;24.25;;;;;14.20;100.00;102329.25;5120650;27;45280;-78
2022/05/06 05:03:22;;;;;;;;;26.00;23.75;;;;;14.21;100.00;102327.50;5120312;27;45470;-79
2022/05/06 05:08:22;;;;;;;;;30.00;23.75;;;;;14.22;100.00;102332.84;4991247;22;45388;-79
2022/05/06 05:10:48;;;;;;;;;26.00;23.25;;;;;14.23;100.00;102339.06;5092266;27;45361;-79
2022/05/06 05:13:14;;;;;;;;;28.25;24.75;;;;;14.23;100.00;102328.44;5099875;27;45366;-80
2022/05/06 05:15:39;;;;;;;;;32.75;28.00;;;;;14.22;100.00;102332.84;5099329;27;46211;-78
2022/05/06 05:18:05;;;;;;;;;29.50;26.00;;;;;14.23;100.00;102325.78;5099207;27;50171;-80
2022/05/06 05:20:32;;;;;;;;;27.25;26.50;;;;;14.23;100.00;102331.97;5099624;27;45317;-79
2022/05/06 05:22:58;;;;;;;;;24.00;23.25;;;;;14.25;100.00;102332.00;5099574;27;45253;-78
2022/05/06 05:25:23;;;;;;;;;27.50;27.00;;;;;14.26;100.00;102339.09;5099227;27;46627;-78
2022/05/06 05:27:48;;;;;;;;;31.50;29.25;;;;;14.26;100.00;102329.38;5099172;27;45298;-78
2022/05/06 05:30:14;;;;;;;;;29.25;26.25;;;;;14.26;100.00;102334.69;5099252;27;45371;-77
2022/05/06 05:32:40;;;;;;;;;30.50;23.75;;;;;14.28;100.00;102340.94;5099245;27;45573;-79
2022/05/06 05:35:05;;;;;;;;;29.25;26.50;;;;;14.30;100.00;102341.84;5099059;27;45849;-78
2022/05/06 05:37:31;;;;;;;;;28.50;25.25;;;;;14.33;100.00;102349.00;5099187;27;45257;-78
2022/05/06 05:39:56;;;;;;;;;26.00;22.25;;;;;14.30;100.00;102348.94;5099303;27;45399;-78
2022/05/06 05:42:23;;;;;;;;;32.25;25.00;;;;;14.30;100.00;102348.94;5081127;27;45497;-80
2022/05/06 05:50:18;;;;;;;;;34.00;27.50;;;;;14.32;100.00;102350.75;5098220;27;45467;-78
2022/05/06 05:52:44;;;;;;;;;35.00;27.00;;;;;14.36;100.00;102352.59;5099087;27;45616;-79
2022/05/06 05:55:10;;;;;;;;;37.25;31.50;;;;;14.36;100.00;102351.72;5098545;27;47752;-80
2022/05/06 05:57:35;;;;;;;;;37.50;28.75;;;;;14.37;100.00;102343.75;5098814;27;45401;-78
2022/05/06 06:00:01;;;;;;;;;24.50;23.25;;;;;14.39;100.00;102347.38;5078175;27;45174;-78
2022/05/06 06:02:26;;;;;;;;;26.00;24.50;;;;;14.41;100.00;102348.28;5099195;27;45275;-79
2022/05/06 06:04:52;;;;;;;;;27.75;22.00;;;;;14.44;100.00;102351.88;5079960;27;46700;-79
2022/05/06 06:07:18;;;;;;;;;30.75;23.00;;;;;14.45;100.00;102335.97;5097794;27;45217;-78
2022/05/06 06:09:43;;;;;;;;;26.50;24.25;;;;;14.51;100.00;102333.44;5098495;27;45311;-78
2022/05/06 06:12:09;;;;;;;;;25.25;22.25;;;;;14.53;100.00;102333.47;5080732;27;45509;-79
2022/05/06 06:14:35;;;;;;;;;33.00;27.50;;;;;14.57;100.00;102341.53;5098171;27;46412;-79
2022/05/06 06:17:00;;;;;;;;;26.25;22.75;;;;;14.58;100.00;102338.00;5098598;27;45394;-79
2022/05/06 06:19:26;;;;;;;;;28.75;25.25;;;;;14.57;100.00;102338.88;5098422;27;45315;-77
2022/05/06 06:21:51;;;;;;;;;28.00;26.75;;;;;14.57;100.00;102332.66;5098602;27;45307;-78
2022/05/06 06:24:19;;;;;;;;;29.25;26.25;;;;;14.62;100.00;102344.28;5098098;27;46257;-78
2022/05/06 06:26:44;;;;;;;;;24.75;22.00;;;;;14.63;100.00;102338.09;5098482;27;45411;-80
2022/05/06 06:29:09;;;;;;;;;28.00;27.00;;;;;14.64;100.00;102348.72;5098269;27;45182;-79
2022/05/06 06:31:37;;;;;;;;;28.75;26.25;;;;;14.68;100.00;102352.34;5097243;27;45428;-78
2022/05/06 06:34:02;;;;;;;;;30.25;27.00;;;;;14.73;100.00;102349.78;5097651;27;46470;-80
2022/05/06 06:36:28;;;;;;;;;30.75;25.50;;;;;14.77;100.00;102359.63;5098204;27;45372;-78
2022/05/06 06:38:54;;;;;;;;;28.75;25.50;;;;;14.81;100.00;102350.84;5096348;27;46783;-79
2022/05/06 06:41:20;;;;;;;;;30.50;26.25;;;;;14.82;100.00;102342.00;5091409;27;45494;-78
2022/05/06 06:43:47;;;;;;;;;35.50;28.25;;;;;14.84;100.00;102348.22;5079737;27;48549;-78
2022/05/06 06:46:12;;;;;;;;;32.50;30.00;;;;;14.87;100.00;102342.97;5098037;27;45350;-78
2022/05/06 06:48:39;;;;;;;;;31.25;27.75;;;;;14.90;100.00;102346.56;5097806;27;45569;-78
2022/05/06 06:51:05;;;;;;;;;28.50;22.00;;;;;14.97;100.00;102355.56;5098211;27;45548;-78
2022/05/06 06:53:30;;;;;;;;;36.25;30.25;;;;;15.01;100.00;102354.72;5097805;27;46602;-78
2022/05/06 06:55:56;;;;;;;;;33.75;28.75;;;;;15.04;100.00;102357.44;5097772;27;45292;-78
2022/05/06 06:58:21;;;;;;;;;35.50;31.25;;;;;15.09;100.00;102352.19;5096006;27;45526;-79
2022/05/06 07:00:47;;;;;;;;;31.50;27.25;;;;;15.11;100.00;102351.34;5098167;27;45265;-77
2022/05/06 07:03:13;;;;;;;;;33.00;30.25;;;;;15.14;100.00;102346.09;5097653;27;46951;-79
2022/05/06 07:11:52;;;;;;;;;30.75;27.00;;;;;15.16;100.00;102344.34;5097617;27;45473;-79
2022/05/06 07:13:52;;;;;;;;;31.75;27.50;;;;;15.30;100.00;102352.56;5097809;27;45230;-78
2022/05/06 07:16:17;;;;;;;;;33.75;29.50;;;;;15.33;100.00;102357.91;5097350;27;45223;-80
2022/05/06 07:18:43;;;;;;;;;32.00;30.25;;;;;15.35;100.00;102357.94;5096567;27;45587;-78
2022/05/06 07:21:08;;;;;;;;;48.25;39.50;;;;;15.38;100.00;102355.31;5097755;27;45500;-78
2022/05/06 07:23:34;;;;;;;;;44.75;35.75;;;;;15.41;100.00;102361.59;5097489;27;46389;-79
2022/05/06 07:25:59;;;;;;;;;30.75;28.50;;;;;15.48;100.00;102367.00;5097230;27;45402;-78
2022/05/06 07:28:24;;;;;;;;;32.50;28.75;;;;;15.53;100.00;102368.88;5097415;27;46256;-79
2022/05/06 07:30:50;;;;;;;;;28.00;26.75;;;;;15.58;100.00;102369.84;5097371;27;45563;-79
2022/05/06 07:33:15;;;;;;;;;34.50;30.75;;;;;15.62;100.00;102366.34;5096838;27;54579;-78
2022/05/06 07:35:40;;;;;;;;;29.00;27.25;;;;;15.67;100.00;102366.47;5097259;27;45336;-79
2022/05/06 07:38:06;;;;;;;;;33.25;28.25;;;;;15.70;100.00;102367.38;5096494;27;45362;-79
2022/05/06 07:40:31;;;;;;;;;29.00;27.50;;;;;15.75;100.00;102369.22;5097507;27;45649;-79
2022/05/06 07:42:57;;;;;;;;;35.50;30.25;;;;;15.79;100.00;102366.63;5096482;27;46447;-78
2022/05/06 07:45:22;;;;;;;;;30.75;25.75;;;;;15.83;100.00;102367.56;5096948;27;45437;-78
2022/05/06 07:47:48;;;;;;;;;30.00;28.00;;;;;15.89;100.00;102362.31;5097160;27;45271;-78
2022/05/06 07:50:14;;;;;;;;;35.25;28.25;;;;;15.93;100.00;102366.81;5097310;27;45576;-78
2022/05/06 07:52:41;;;;;;;;;33.50;29.00;;;;;15.99;100.00;102369.56;5097128;27;46532;-79
2022/05/06 07:55:08;;;;;;;;;29.50;28.50;;;;;16.04;100.00;102357.22;5097456;27;45452;-79
2022/05/06 07:57:33;;;;;;;;;31.75;30.50;;;;;16.09;100.00;102360.81;5097220;27;45367;-79
2022/05/06 07:59:58;;;;;;;;;33.25;31.00;;;;;16.13;100.00;102356.41;5094902;27;45443;-79
2022/05/06 08:05:07;;;;;;;;;33.25;28.75;;;;;16.21;100.00;102352.09;5097139;27;45337;-80
2022/05/06 08:07:33;;;;;;;;;31.50;28.00;;;;;16.27;100.00;102354.81;5101774;27;45330;-78
2022/05/06 08:09:58;;;;;;;;;39.50;31.25;;;;;16.27;100.00;102349.47;5091391;27;45324;-80
2022/05/06 08:12:25;;;;;;;;;29.75;28.00;;;;;16.34;100.00;102355.78;5096715;27;46442;-78
2022/05/06 08:14:51;;;;;;;;;30.25;28.75;;;;;16.35;100.00;102355.81;5075201;28;45383;-78
2022/05/06 08:17:16;;;;;;;;;33.75;26.25;;;;;16.38;100.00;102349.59;5095387;27;45382;-80
2022/05/06 08:19:41;;;;;;;;;28.50;26.00;;;;;16.40;100.00;102351.41;5096873;27;45557;-79
2022/05/06 08:22:07;;;;;;;;;32.25;24.75;;;;;16.45;100.00;102346.13;5096863;27;47473;-78
2022/05/06 08:24:33;;;;;;;;;26.00;26.00;;;;;16.49;100.00;102345.28;5096743;27;45305;-79
2022/05/06 08:26:59;;;;;;;;;27.50;23.25;;;;;16.52;100.00;102337.34;5097075;27;45134;-79
2022/05/06 08:29:24;;;;;;;;;29.25;23.75;;;;;16.58;100.00;102340.06;5097888;27;45514;-78
2022/05/06 08:31:51;;;;;;;;;26.25;23.00;;;;;16.62;100.00;102335.63;5100028;27;47384;-79
2022/05/06 08:34:18;;;;;;;;;27.75;20.25;;;;;16.67;100.00;102333.91;5101290;27;46166;-79
2022/05/06 08:36:44;;;;;;;;;25.00;23.50;;;;;16.73;100.00;102336.69;5102070;27;45432;-78
2022/05/06 08:39:11;;;;;;;;;17.33;16.33;;;;;16.77;100.00;102336.72;5100680;27;45284;-79
2022/05/06 08:41:38;;;;;;;;;18.33;15.00;;;;;16.82;100.00;102344.75;5100046;27;47525;-79
2022/05/06 08:52:25;;;;;;;;;23.33;19.33;;;;;17.11;100.00;102323.69;5099748;27;45300;-80
2022/05/06 08:54:51;;;;;;;;;19.33;15.00;;;;;17.17;100.00;102317.50;5100058;27;45371;-79
2022/05/06 08:57:17;;;;;;;;;17.00;15.67;;;;;17.22;100.00;102313.97;5099821;27;45803;-79
2022/05/06 08:59:42;;;;;;;;;17.67;16.33;;;;;17.27;100.00;102320.25;5097431;27;45272;-80
2022/05/06 09:02:09;;;;;;;;;16.00;15.00;;;;;17.35;100.00;102316.72;5099637;27;47866;-79
2022/05/06 09:04:39;;;;;;;;;16.67;15.00;;;;;17.43;100.00;102315.91;5099527;27;45176;-78
2022/05/06 09:07:21;;;;;;;;;16.33;14.67;;;;;17.51;100.00;102319.50;5099799;27;45599;-79
2022/05/06 09:10:15;;;;;;;;;20.00;15.33;;;;;17.64;100.00;102319.59;5091341;27;45379;-78
2022/05/06 09:12:45;;;;;;;;;16.00;14.00;;;;;17.71;100.00;102319.63;5099191;27;46662;-79
2022/05/06 09:17:59;;;;;;;;;13.00;13.00;;;;;17.82;100.00;102317.03;5099550;27;45370;-79
2022/05/06 09:20:26;;;;;;;;;13.33;13.33;;;;;17.87;100.00;102311.72;5099914;27;45460;-79
2022/05/06 09:22:52;;;;;;;;;17.00;12.00;;;;;17.91;100.00;102317.09;5099169;27;47357;-79
2022/05/06 09:25:42;;;;;;;;;15.00;11.00;;;;;17.99;100.00;102317.09;5081047;27;45362;-79
2022/05/06 09:28:21;;;;;;;;;9.67;9.00;;;;;18.11;100.00;102314.50;5099448;27;45319;-79
2022/05/06 09:31:07;;;;;;;;;9.00;9.00;;;;;18.26;100.00;102314.53;5081136;27;45237;-79
2022/05/06 09:33:37;;;;;;;;;10.00;8.33;;;;;18.36;100.00;102311.88;5091597;27;48642;-79
2022/05/06 09:36:24;;;;;;;;;10.67;8.67;;;;;18.47;100.00;102311.00;5080981;27;45478;-78
2022/05/06 09:39:06;;;;;;;;;10.33;9.00;;;;;18.49;100.00;102303.91;5099139;27;45150;-78
2022/05/06 09:41:32;;;;;;;;;10.00;9.00;;;;;18.57;100.00;102311.94;5097924;27;45316;-79
2022/05/06 09:44:02;;;;;;;;;9.33;7.33;;;;;18.59;100.00;102304.81;5098819;27;45714;-79
2022/05/06 09:46:27;;;;;;;;;11.00;9.33;;;;;18.58;100.00;102311.91;5098926;27;45399;-80
2022/05/06 09:48:59;;;;;;;;;9.33;9.33;;;;;18.54;100.00;102301.25;5098890;27;45501;-79
2022/05/06 09:51:26;;;;;;;;;12.00;11.00;;;;;18.51;100.00;102304.78;5099139;27;45599;-78
2022/05/06 09:53:51;;;;;;;;;12.00;10.67;;;;;18.49;100.00;102303.91;5104625;27;46604;-79
2022/05/06 09:56:19;;;;;;;;;10.67;9.67;;;;;18.51;100.00;102295.88;5106075;27;45183;-79
2022/05/06 09:58:46;;;;;;;;;10.00;10.00;;;;;18.50;100.00;102294.97;5080510;27;45445;-81
2022/05/06 10:01:14;;;;;;;;;9.33;8.00;;;;;18.55;100.00;102292.31;5098900;27;45338;-78
2022/05/06 10:03:40;;;;;;;;;14.00;13.00;;;;;18.58;100.00;102295.88;5098549;27;46480;-78
2022/05/06 10:06:09;;;;;;;;;12.00;10.00;;;;;18.60;100.00;102293.22;5098398;27;45387;-80
2022/05/06 10:08:36;;;;;;;;;9.00;9.00;;;;;18.64;100.00;102291.41;5099738;27;45501;-79
2022/05/06 10:11:03;;;;;;;;;10.33;7.33;;;;;18.70;100.00;102283.47;5093938;27;45303;-80
2022/05/06 10:13:30;;;;;;;;;11.33;10.33;;;;;18.71;99.59;102286.13;5097336;27;46482;-80
2022/05/06 10:15:55;;;;;;;;;11.33;11.33;;;;;18.81;99.28;102289.69;5080222;27;45357;-80
2022/05/06 10:18:34;;;;;;;;;7.33;6.67;;;;;18.90;100.00;102283.44;5098538;27;45375;-79
2022/05/06 10:21:04;;;;;;;;;11.00;8.67;;;;;18.96;99.83;102286.09;5080211;27;45500;-79
2022/05/06 10:23:52;;;;;;;;;16.67;12.33;;;;;19.08;97.88;102286.13;5098321;27;46329;-79
2022/05/06 10:26:39;;;;;;;;;9.00;9.00;;;;;19.20;97.00;102280.75;5098472;27;45615;-79
2022/05/06 10:34:57;;;;;;;;;8.00;8.00;;;;;19.56;96.35;102277.09;5088944;27;45274;-79
2022/05/06 10:37:26;;;;;;;;;8.00;7.00;;;;;19.60;94.82;102269.94;5098018;27;45346;-78
2022/05/06 10:39:52;;;;;;;;;6.67;6.67;;;;;19.68;93.13;102276.19;5097213;27;45255;-78
2022/05/06 10:42:19;;;;;;;;;8.00;8.00;;;;;19.79;94.37;102266.31;5095034;27;45174;-78
2022/05/06 10:44:44;;;;;;;;;7.33;7.33;;;;;19.91;93.62;102262.69;5079738;27;47032;-80
2022/05/06 10:47:12;;;;;;;;;7.00;7.00;;;;;20.01;93.86;102263.53;5098155;27;45327;-79
2022/05/06 10:49:38;;;;;;;;;6.00;6.00;;;;;20.12;92.30;102267.94;5097984;27;45473;-79
2022/05/06 10:52:28;;;;;;;;;8.00;7.00;;;;;20.19;91.19;102257.16;5097684;27;45661;-79
2022/05/06 10:54:55;;;;;;;;;13.67;12.67;;;;;20.21;92.32;102252.69;5092335;27;46837;-79
2022/05/06 10:57:22;;;;;;;;;25.33;20.00;;;;;20.25;90.42;102252.69;5097599;27;45304;-80
2022/05/06 10:59:58;;;;;;;;;7.67;7.33;;;;;20.32;89.94;102259.78;5095800;27;45266;-79
2022/05/06 11:02:25;;;;;;;;;9.67;9.00;;;;;20.36;88.79;102257.97;5098002;27;45212;-78
2022/05/06 11:04:52;;;;;;;;;9.00;9.00;;;;;20.36;89.44;102252.59;5097627;27;46743;-79
2022/05/06 11:07:18;;;;;;;;;7.00;7.00;;;;;20.39;88.51;102250.75;5097289;27;45204;-80
2022/05/06 11:09:44;;;;;;;;;6.00;6.00;;;;;20.45;89.24;102246.25;5103168;27;45434;-79
2022/05/06 11:12:10;;;;;;;;;9.00;7.33;;;;;20.48;88.17;102249.84;5097988;27;46233;-79
2022/05/06 11:14:35;;;;;;;;;7.00;7.00;;;;;20.49;87.23;102242.69;5097562;27;47874;-79
2022/05/06 11:17:18;;;;;;;;;8.33;7.33;;;;;20.52;87.29;102242.69;5097486;27;45301;-80
2022/05/06 11:19:43;;;;;;;;;5.33;5.33;;;;;20.55;86.92;102234.59;5097685;27;45418;-79
2022/05/06 11:22:09;;;;;;;;;7.00;4.33;;;;;20.62;86.61;102231.88;5098010;27;45271;-80
2022/05/06 11:24:35;;;;;;;;;6.33;6.33;;;;;20.73;87.40;102239.81;5097346;27;47425;-80
2022/05/06 11:27:17;;;;;;;;;6.67;6.67;;;;;20.88;83.51;102230.75;5097273;27;45316;-79
2022/05/06 11:29:57;;;;;;;;;6.33;6.00;;;;;21.02;85.71;102228.81;5086316;27;45181;-79
2022/05/06 11:32:31;;;;;;;;;6.67;6.00;;;;;21.17;83.50;102225.06;5097402;27;45387;-79
2022/05/06 11:35:11;;;;;;;;;8.33;7.00;;;;;21.30;81.77;102221.38;5097123;27;47680;-79
2022/05/06 11:37:41;;;;;;;;;5.67;5.67;;;;;21.45;82.64;102220.31;5097765;27;45342;-79
2022/05/06 11:40:32;;;;;;;;;14.33;12.00;;;;;21.58;80.49;102232.69;5097587;27;45307;-79
2022/05/06 11:43:02;;;;;;;;;7.00;6.00;;;;;21.68;80.55;102226.31;5086472;27;45200;-79
2022/05/06 11:48:14;;;;;;;;;7.00;5.33;;;;;21.58;79.60;102221.94;5097134;27;45460;-78
2022/05/06 11:50:41;;;;;;;;;4.33;4.33;;;;;21.54;78.40;102227.38;5097377;27;45444;-80